createdAt,value
2023-03-17T00:00:23.651Z,100338.72
2023-03-17T00:02:50.566Z,100348.69
2023-03-17T00:05:30.781Z,100349.53
2023-03-17T00:08:01.927Z,100349.53
2023-03-17T00:10:28.801Z,100337.41
2023-03-17T00:12:55.384Z,100341.22
2023-03-17T00:15:23.638Z,100337.81
2023-03-17T00:17:50.322Z,100343.25
2023-03-17T00:20:23.818Z,100340.47
2023-03-17T00:22:50.961Z,100343.13
2023-03-17T00:25:22.099Z,100339.22
2023-03-17T00:27:49.464Z,100341.22
2023-03-17T00:30:16.433Z,100340.13
2023-03-17T00:32:45.215Z,100337.59
2023-03-17T00:35:20.034Z,100343.72
2023-03-17T00:37:46.792Z,100333.88
2023-03-17T00:40:19.172Z,100333.13
2023-03-17T00:42:46.179Z,100335.97
2023-03-17T00:45:13.252Z,100335.13
2023-03-17T00:47:40.260Z,100330.78
2023-03-17T00:50:10.895Z,100335.06
2023-03-17T00:52:38.841Z,100338.09
2023-03-17T00:55:07.827Z,100335.13
2023-03-17T00:57:35.088Z,100330.78
2023-03-17T01:00:02.008Z,100333.75
2023-03-17T01:02:28.417Z,100325.22
2023-03-17T01:05:05.581Z,100324.16
2023-03-17T01:07:32.742Z,100312.25
2023-03-17T01:09:59.551Z,100318.59
2023-03-17T01:12:26.260Z,100316.25
2023-03-17T01:14:52.739Z,100304.47
2023-03-17T01:17:20.085Z,100295.47
2023-03-17T01:19:47.087Z,100307.38
2023-03-17T01:22:13.925Z,100307.69
2023-03-17T01:24:41.007Z,100305.50
2023-03-17T01:27:07.630Z,100299.94
2023-03-17T01:29:34.697Z,100299.38
2023-03-17T01:32:01.048Z,100300.63
2023-03-17T01:34:28.095Z,100296.16
2023-03-17T01:36:54.665Z,100291.91
2023-03-17T01:39:20.970Z,100282.47
2023-03-17T01:41:47.462Z,100269.25
2023-03-17T01:44:16.636Z,100275.13
2023-03-17T01:46:43.979Z,100269.34
2023-03-17T01:49:19.287Z,100268.47
2023-03-17T01:52:20.668Z,100271.03
2023-03-17T01:54:56.293Z,100267.53
2023-03-17T01:57:39.581Z,100261.28
2023-03-17T02:00:10.698Z,100256.16
2023-03-17T02:02:40.475Z,100257.88
2023-03-17T02:05:10.777Z,100252.94
2023-03-17T02:07:37.573Z,100265.25
2023-03-17T02:10:05.915Z,100256.78
2023-03-17T02:12:34.596Z,100278.53
2023-03-17T02:15:00.924Z,100284.59
2023-03-17T02:17:28.600Z,100279.28
2023-03-17T02:19:55.784Z,100265.25
2023-03-17T02:22:22.117Z,100269.09
2023-03-17T02:24:52.604Z,100272.88
2023-03-17T02:27:23.837Z,100266.25
2023-03-17T02:29:50.762Z,100266.25
2023-03-17T02:32:18.682Z,100257.75
2023-03-17T02:34:48.409Z,100249.81
2023-03-17T02:37:15.837Z,100250.53
2023-03-17T02:39:42.552Z,100253.31
2023-03-17T02:42:09.376Z,100235.88
2023-03-17T02:44:36.079Z,100233.78
2023-03-17T02:47:03.245Z,100219.09
2023-03-17T02:49:31.526Z,100212.09
2023-03-17T02:51:58.083Z,100217.41
2023-03-17T02:54:24.478Z,100204.03
2023-03-17T02:56:51.139Z,100212.78
2023-03-17T02:59:17.598Z,100214.75
2023-03-17T03:01:44.057Z,100209.75
2023-03-17T03:04:10.732Z,100224.91
2023-03-17T03:06:37.492Z,100211.63
2023-03-17T03:09:03.881Z,100230.31
2023-03-17T03:11:30.277Z,100234.13
2023-03-17T03:13:56.913Z,100240.13
2023-03-17T03:16:23.343Z,100241.63
2023-03-17T03:18:49.655Z,100248.28
2023-03-17T03:21:16.054Z,100242.78
2023-03-17T03:23:43.182Z,100237.22
2023-03-17T03:26:09.555Z,100241.66
2023-03-17T03:28:36.101Z,100236.94
2023-03-17T03:31:02.522Z,100238.00
2023-03-17T03:33:28.891Z,100240.06
2023-03-17T03:35:55.247Z,100248.22
2023-03-17T03:38:21.607Z,100248.97
2023-03-17T03:40:48.179Z,100236.19
2023-03-17T03:43:22.888Z,100232.22
2023-03-17T03:45:50.291Z,100220.38
2023-03-17T03:48:16.792Z,100217.91
2023-03-17T03:50:43.178Z,100221.50
2023-03-17T03:53:09.873Z,100230.94
2023-03-17T03:55:36.444Z,100230.47
2023-03-17T03:58:02.760Z,100239.56
2023-03-17T04:00:29.362Z,100230.84
2023-03-17T04:02:55.935Z,100232.47
2023-03-17T04:05:22.469Z,100231.72
2023-03-17T04:07:48.844Z,100235.97
2023-03-17T04:10:16.766Z,100228.47
2023-03-17T04:12:43.377Z,100240.75
2023-03-17T04:15:13.638Z,100232.25
2023-03-17T04:17:40.048Z,100216.47
2023-03-17T04:20:07.105Z,100204.00
2023-03-17T04:22:33.636Z,100207.66
2023-03-17T04:24:59.998Z,100196.75
2023-03-17T04:27:26.985Z,100201.69
2023-03-17T04:29:53.718Z,100197.81
2023-03-17T04:32:20.404Z,100183.25
2023-03-17T04:34:46.730Z,100206.78
2023-03-17T04:37:13.755Z,100211.69
2023-03-17T04:39:40.277Z,100210.84
2023-03-17T04:42:06.905Z,100220.50
2023-03-17T04:44:33.689Z,100216.44
2023-03-17T04:47:00.237Z,100227.31
2023-03-17T04:49:27.122Z,100231.47
2023-03-17T04:51:53.536Z,100245.66
2023-03-17T04:54:20.511Z,100249.50
2023-03-17T04:56:47.060Z,100248.84
2023-03-17T04:59:13.426Z,100248.03
2023-03-17T05:01:39.688Z,100243.69
2023-03-17T05:04:08.009Z,100242.09
2023-03-17T05:06:34.603Z,100242.94
2023-03-17T05:09:00.924Z,100246.34
2023-03-17T05:11:27.263Z,100247.38
2023-03-17T05:13:53.639Z,100250.97
2023-03-17T05:16:20.055Z,100249.59
2023-03-17T05:18:46.822Z,100257.13
2023-03-17T05:21:13.265Z,100273.13
2023-03-17T05:23:40.255Z,100276.22
2023-03-17T05:26:06.748Z,100271.28
2023-03-17T05:28:33.484Z,100258.00
2023-03-17T05:30:59.970Z,100252.63
2023-03-17T05:33:26.349Z,100258.19
2023-03-17T05:35:53.586Z,100253.03
2023-03-17T05:38:19.919Z,100257.66
2023-03-17T05:40:49.865Z,100267.09
2023-03-17T05:43:16.353Z,100256.91
2023-03-17T05:45:42.978Z,100257.66
2023-03-17T05:48:09.349Z,100267.09
2023-03-17T05:50:35.848Z,100267.69
2023-03-17T05:53:02.221Z,100254.72
2023-03-17T05:55:28.815Z,100258.22
2023-03-17T05:57:55.390Z,100255.69
2023-03-17T06:00:23.053Z,100249.06
2023-03-17T06:02:49.378Z,100249.75
2023-03-17T06:05:16.131Z,100255.47
2023-03-17T06:07:52.890Z,100252.06
2023-03-17T06:10:21.837Z,100246.00
2023-03-17T06:12:48.194Z,100247.72
2023-03-17T06:15:16.544Z,100240.44
2023-03-17T06:17:43.121Z,100230.56
2023-03-17T06:20:10.225Z,100240.53
2023-03-17T06:22:37.222Z,100246.13
2023-03-17T06:25:04.745Z,100246.34
2023-03-17T06:27:31.154Z,100239.75
2023-03-17T06:29:58.694Z,100246.81
2023-03-17T06:32:25.385Z,100232.88
2023-03-17T06:34:53.664Z,100260.94
2023-03-17T06:37:21.129Z,100271.81
2023-03-17T06:39:48.143Z,100268.63
2023-03-17T06:42:14.635Z,100266.16
2023-03-17T06:44:41.551Z,100266.56
2023-03-17T06:47:07.979Z,100267.59
2023-03-17T06:49:34.342Z,100273.16
2023-03-17T06:52:00.681Z,100281.97
2023-03-17T06:54:27.163Z,100286.63
2023-03-17T06:56:53.646Z,100280.53
2023-03-17T06:59:20.992Z,100273.91
2023-03-17T07:01:48.903Z,100275.97
2023-03-17T07:04:15.880Z,100274.75
2023-03-17T07:06:42.854Z,100280.66
2023-03-17T07:09:09.980Z,100274.34
2023-03-17T07:11:36.426Z,100269.38
2023-03-17T07:14:02.818Z,100271.84
2023-03-17T07:16:29.383Z,100269.72
2023-03-17T07:18:55.901Z,100255.78
2023-03-17T07:21:22.335Z,100260.13
2023-03-17T07:23:48.728Z,100264.06
2023-03-17T07:26:21.367Z,100252.97
2023-03-17T07:28:47.692Z,100262.91
2023-03-17T07:31:14.844Z,100259.53
2023-03-17T07:33:42.054Z,100263.97
2023-03-17T07:36:08.992Z,100256.53
2023-03-17T07:38:36.189Z,100257.56
2023-03-17T07:41:03.564Z,100252.84
2023-03-17T07:43:30.510Z,100256.19
2023-03-17T07:45:57.083Z,100257.28
2023-03-17T07:48:24.032Z,100260.63
2023-03-17T07:50:50.726Z,100245.84
2023-03-17T07:53:17.000Z,100260.28
2023-03-17T07:55:43.470Z,100257.28
2023-03-17T07:58:10.469Z,100251.06
2023-03-17T08:00:36.891Z,100246.72
2023-03-17T08:03:10.316Z,100255.78
2023-03-17T08:05:37.877Z,100246.22
2023-03-17T08:08:06.568Z,100249.94
2023-03-17T08:10:33.353Z,100251.44
2023-03-17T08:12:59.974Z,100238.03
2023-03-17T08:15:26.548Z,100229.81
2023-03-17T08:17:53.736Z,100238.72
2023-03-17T08:20:20.319Z,100222.31
2023-03-17T08:22:46.956Z,100239.06
2023-03-17T08:25:13.674Z,100228.34
2023-03-17T08:27:40.518Z,100241.66
2023-03-17T08:30:07.718Z,100238.09
2023-03-17T08:32:34.329Z,100226.03
2023-03-17T08:35:01.222Z,100244.41
2023-03-17T08:37:27.695Z,100238.66
2023-03-17T08:39:54.209Z,100236.19
2023-03-17T08:42:20.551Z,100236.41
2023-03-17T08:44:47.068Z,100222.34
2023-03-17T08:47:13.398Z,100222.84
2023-03-17T08:49:39.728Z,100232.19
2023-03-17T08:52:06.077Z,100231.19
2023-03-17T08:54:35.699Z,100231.06
2023-03-17T08:57:02.032Z,100221.59
2023-03-17T08:59:28.681Z,100204.94
2023-03-17T09:01:55.740Z,100206.63
2023-03-17T09:04:23.261Z,100222.59
2023-03-17T09:07:02.753Z,100227.16
2023-03-17T09:09:30.988Z,100228.13
2023-03-17T09:11:57.313Z,100210.22
2023-03-17T09:14:24.639Z,100203.94
2023-03-17T09:16:51.040Z,100198.59
2023-03-17T09:19:17.882Z,100199.50
2023-03-17T09:21:44.719Z,100190.22
2023-03-17T09:24:11.227Z,100180.22
2023-03-17T09:26:37.615Z,100196.69
2023-03-17T09:29:05.147Z,100195.22
2023-03-17T09:31:32.372Z,100191.38
2023-03-17T09:33:59.691Z,100187.63
2023-03-17T09:36:26.133Z,100177.16
2023-03-17T09:38:52.655Z,100169.66
2023-03-17T09:41:53.039Z,100171.19
2023-03-17T09:44:38.454Z,100179.97
2023-03-17T09:47:51.786Z,100183.91
2023-03-17T09:50:33.347Z,100182.81
2023-03-17T09:53:03.834Z,100166.78
2023-03-17T09:55:32.704Z,100172.44
2023-03-17T09:58:00.720Z,100167.44
2023-03-17T10:00:29.336Z,100168.94
2023-03-17T10:02:57.774Z,100147.28
2023-03-17T10:05:30.830Z,100159.63
2023-03-17T10:08:29.592Z,100156.34
2023-03-17T10:11:09.414Z,100164.56
2023-03-17T10:14:00.602Z,100159.38
2023-03-17T10:16:31.150Z,100156.50
2023-03-17T10:19:05.341Z,100157.72
2023-03-17T10:21:34.496Z,100146.34
2023-03-17T10:24:04.076Z,100152.56
2023-03-17T10:26:44.194Z,100156.72
2023-03-17T10:29:21.633Z,100152.66
2023-03-17T10:31:49.356Z,100158.63
2023-03-17T10:34:29.514Z,100155.31
2023-03-17T10:37:07.471Z,100151.78
2023-03-17T10:39:52.403Z,100142.38
2023-03-17T10:42:27.084Z,100132.97
2023-03-17T10:45:27.655Z,100148.13
2023-03-17T10:47:57.067Z,100155.28
2023-03-17T10:50:32.530Z,100153.81
2023-03-17T10:53:20.226Z,100148.66
2023-03-17T10:55:50.328Z,100137.50
2023-03-17T10:58:23.073Z,100148.75
2023-03-17T11:00:59.848Z,100141.53
2023-03-17T11:03:31.147Z,100133.81
2023-03-17T11:06:04.020Z,100140.22
2023-03-17T11:08:32.295Z,100136.16
2023-03-17T11:10:58.623Z,100123.84
2023-03-17T11:13:30.070Z,100134.47
2023-03-17T11:16:22.241Z,100127.88
2023-03-17T11:18:54.444Z,100125.19
2023-03-17T11:21:29.960Z,100117.78
2023-03-17T11:24:12.107Z,100116.59
2023-03-17T11:27:33.238Z,100121.97
2023-03-17T11:30:17.287Z,100120.16
2023-03-17T11:32:53.101Z,100111.38
2023-03-17T11:35:43.341Z,100107.31
2023-03-17T11:38:32.935Z,100107.97
2023-03-17T11:41:14.049Z,100096.28
2023-03-17T11:43:59.418Z,100092.75
2023-03-17T11:46:30.824Z,100092.78
2023-03-17T11:49:16.300Z,100082.44
2023-03-17T11:52:00.764Z,100071.44
2023-03-17T11:54:42.106Z,100078.97
2023-03-17T11:57:15.271Z,100086.03
2023-03-17T11:59:54.328Z,100087.16
2023-03-17T12:02:31.771Z,100083.81
2023-03-17T12:05:29.795Z,100089.19
2023-03-17T12:08:12.018Z,100089.00
2023-03-17T12:11:10.493Z,100088.53
2023-03-17T12:13:42.904Z,100077.69
2023-03-17T12:16:17.297Z,100062.78
2023-03-17T12:19:16.457Z,100061.25
2023-03-17T12:22:15.137Z,100054.09
2023-03-17T12:24:54.021Z,100051.19
2023-03-17T12:27:27.733Z,100051.72
2023-03-17T12:30:02.922Z,100056.41
2023-03-17T12:32:38.058Z,100056.25
2023-03-17T12:35:29.329Z,100050.66
2023-03-17T12:37:59.801Z,100060.13
2023-03-17T12:40:39.919Z,100058.94
2023-03-17T12:43:19.372Z,100055.38
2023-03-17T12:46:04.308Z,100049.63
2023-03-17T12:48:39.949Z,100036.75
2023-03-17T12:51:09.152Z,100036.03
2023-03-17T12:53:47.693Z,100035.84
2023-03-17T12:56:34.336Z,100037.03
2023-03-17T12:59:07.330Z,100030.78
2023-03-17T13:01:38.948Z,100022.63
2023-03-17T13:04:11.223Z,100035.50
2023-03-17T13:07:19.865Z,100022.91
2023-03-17T13:09:50.647Z,100012.69
2023-03-17T13:12:35.010Z,100016.41
2023-03-17T13:15:01.612Z,100009.16
2023-03-17T13:17:28.682Z,100005.59
2023-03-17T13:20:04.313Z,100001.88
2023-03-17T13:23:08.168Z,99996.66
2023-03-17T13:25:41.724Z,99996.41
2023-03-17T13:28:12.049Z,99992.75
2023-03-17T13:30:38.556Z,99992.47
2023-03-17T13:33:16.340Z,99992.22
2023-03-17T13:35:59.097Z,99981.88
2023-03-17T13:38:34.507Z,99980.50
2023-03-17T13:41:21.012Z,99976.78
2023-03-17T13:44:12.859Z,99971.56
2023-03-17T13:46:42.129Z,99974.25
2023-03-17T13:49:18.216Z,99963.72
2023-03-17T13:52:11.998Z,99972.53
2023-03-17T13:54:50.729Z,99973.28
2023-03-17T13:57:38.393Z,99969.56
2023-03-17T14:00:27.768Z,99969.06
2023-03-17T14:03:06.966Z,99969.84
2023-03-17T14:05:37.864Z,99965.97
2023-03-17T14:08:26.435Z,99963.72
2023-03-17T14:10:59.717Z,99970.88
2023-03-17T14:13:35.368Z,99966.97
2023-03-17T14:16:19.976Z,99961.91
2023-03-17T14:18:49.724Z,99958.38
2023-03-17T14:21:22.456Z,99963.19
2023-03-17T14:24:00.728Z,99960.63
2023-03-17T14:26:29.947Z,99945.88
2023-03-17T14:29:00.811Z,99947.56
2023-03-17T14:31:29.019Z,99937.25
2023-03-17T14:33:59.721Z,99943.69
2023-03-17T14:36:28.414Z,99945.50
2023-03-17T14:38:56.578Z,99931.06
2023-03-17T14:41:25.294Z,99944.00
2023-03-17T14:43:56.723Z,99945.88
2023-03-17T14:46:28.841Z,99942.16
2023-03-17T14:49:20.851Z,99936.34
2023-03-17T14:51:57.119Z,99937.00
2023-03-17T14:54:27.281Z,99934.13
2023-03-17T14:57:07.825Z,99927.75
2023-03-17T14:59:48.178Z,99932.81
2023-03-17T15:02:37.817Z,99928.63
2023-03-17T15:05:25.536Z,99921.50
2023-03-17T15:07:52.862Z,99927.66
2023-03-17T15:10:22.637Z,99916.34
2023-03-17T15:12:51.177Z,99921.09
2023-03-17T15:15:33.629Z,99924.38
2023-03-17T15:18:22.352Z,99920.06
2023-03-17T15:20:51.378Z,99912.22
2023-03-17T15:23:27.192Z,99916.41
2023-03-17T15:26:00.400Z,99920.50
2023-03-17T15:28:31.183Z,99916.13
2023-03-17T15:31:11.786Z,99926.56
2023-03-17T15:33:39.835Z,99918.16
2023-03-17T15:36:06.385Z,99922.19
2023-03-17T15:38:33.664Z,99915.44
2023-03-17T15:41:00.011Z,99917.69
2023-03-17T15:43:26.360Z,99923.56
2023-03-17T15:45:58.417Z,99920.25
2023-03-17T15:48:27.699Z,99929.38
2023-03-17T15:50:56.667Z,99918.75
2023-03-17T15:53:23.130Z,99922.13
2023-03-17T15:55:49.582Z,99921.00
2023-03-17T15:58:16.100Z,99920.69
2023-03-17T16:00:44.230Z,99926.78
2023-03-17T16:03:23.821Z,99919.88
2023-03-17T16:05:50.321Z,99924.63
2023-03-17T16:08:17.957Z,99921.09
2023-03-17T16:10:44.900Z,99929.50
2023-03-17T16:13:12.124Z,99923.06
2023-03-17T16:15:41.518Z,99929.22
2023-03-17T16:18:14.697Z,99925.81
2023-03-17T16:20:44.127Z,99928.41
2023-03-17T16:23:18.867Z,99930.09
2023-03-17T16:25:46.328Z,99940.38
2023-03-17T16:28:16.661Z,99935.38
2023-03-17T16:30:43.268Z,99939.78
2023-03-17T16:33:20.787Z,99928.50
2023-03-17T16:35:52.348Z,99930.72
2023-03-17T16:38:21.369Z,99917.78
2023-03-17T16:40:52.657Z,99922.53
2023-03-17T16:43:25.553Z,99932.81
2023-03-17T16:45:54.691Z,99936.38
2023-03-17T16:48:21.066Z,99931.34
2023-03-17T16:50:47.527Z,99939.44
2023-03-17T16:53:13.889Z,99931.53
2023-03-17T16:55:41.250Z,99944.56
2023-03-17T16:58:32.625Z,99945.06
2023-03-17T17:01:01.921Z,99938.84
2023-03-17T17:03:31.007Z,99936.31
2023-03-17T17:05:57.475Z,99935.63
2023-03-17T17:08:24.086Z,99942.34
2023-03-17T17:10:50.916Z,99933.44
2023-03-17T17:13:17.290Z,99928.03
2023-03-17T17:15:43.755Z,99914.06
2023-03-17T17:18:16.639Z,99909.69
2023-03-17T17:20:44.102Z,99908.69
2023-03-17T17:23:14.376Z,99923.81
2023-03-17T17:25:41.276Z,99932.75
2023-03-17T17:28:08.348Z,99938.47
2023-03-17T17:30:34.813Z,99945.84
2023-03-17T17:33:01.901Z,99951.91
2023-03-17T17:35:32.782Z,99945.13
2023-03-17T17:38:00.478Z,99955.06
2023-03-17T17:40:27.303Z,99957.25
2023-03-17T17:42:55.100Z,99957.72
2023-03-17T17:45:21.790Z,99957.06
2023-03-17T17:47:48.647Z,99958.41
2023-03-17T17:50:33.358Z,99966.97
2023-03-17T17:53:05.220Z,99964.44
2023-03-17T17:55:33.705Z,99967.78
2023-03-17T17:58:00.743Z,99968.31
2023-03-17T18:00:27.707Z,99973.66
2023-03-17T18:02:54.263Z,99975.41
2023-03-17T18:05:20.857Z,99971.47
2023-03-17T18:07:47.170Z,99981.84
2023-03-17T18:10:22.246Z,99973.19
2023-03-17T18:12:48.776Z,99969.03
2023-03-17T18:15:15.526Z,99968.09
2023-03-17T18:17:43.226Z,99965.75
2023-03-17T18:20:14.277Z,99972.41
2023-03-17T18:22:40.849Z,99982.09
2023-03-17T18:25:09.859Z,99971.97
2023-03-17T18:27:37.966Z,99972.28
2023-03-17T18:30:07.220Z,99974.28
2023-03-17T18:32:33.708Z,99977.81
2023-03-17T18:35:04.242Z,99976.91
2023-03-17T18:37:31.431Z,99970.81
2023-03-17T18:40:13.465Z,99970.16
2023-03-17T18:42:41.668Z,99957.88
2023-03-17T18:45:09.748Z,99969.13
2023-03-17T18:47:37.577Z,99946.78
2023-03-17T18:50:05.101Z,99965.63
2023-03-17T18:52:33.082Z,99967.63
2023-03-17T18:54:59.609Z,99959.41
2023-03-17T18:57:27.304Z,99961.97
2023-03-17T18:59:54.175Z,99970.78
2023-03-17T19:02:20.826Z,99960.09
2023-03-17T19:04:47.730Z,99968.31
2023-03-17T19:07:14.949Z,99961.28
2023-03-17T19:09:41.387Z,99949.06
2023-03-17T19:12:09.073Z,99967.25
2023-03-17T19:14:37.201Z,99964.56
2023-03-17T19:17:06.226Z,99967.47
2023-03-17T19:19:33.291Z,99968.19
2023-03-17T19:22:00.290Z,99964.03
2023-03-17T19:24:27.312Z,99975.66
2023-03-17T19:26:53.640Z,99973.88
2023-03-17T19:29:20.083Z,99980.41
2023-03-17T19:31:48.481Z,99981.38
2023-03-17T19:34:15.335Z,99991.44
2023-03-17T19:36:46.376Z,99987.59
2023-03-17T19:39:13.546Z,99982.16
2023-03-17T19:41:40.509Z,99997.13
2023-03-17T19:44:06.963Z,99996.66
2023-03-17T19:46:34.940Z,99993.28
2023-03-17T19:49:01.518Z,99992.44
2023-03-17T19:51:27.991Z,99988.69
2023-03-17T19:53:55.366Z,99997.94
2023-03-17T19:56:23.006Z,99990.66
2023-03-17T19:58:49.431Z,99994.09
2023-03-17T20:01:16.953Z,99995.66
2023-03-17T20:03:43.704Z,99999.63
2023-03-17T20:06:13.045Z,100001.28
2023-03-17T20:08:41.272Z,100004.41
2023-03-17T20:11:07.727Z,100006.31
2023-03-17T20:13:35.663Z,100013.31
2023-03-17T20:16:02.596Z,100005.25
2023-03-17T20:18:29.582Z,100013.13
2023-03-17T20:20:57.569Z,100011.44
2023-03-17T20:23:25.309Z,100016.16
2023-03-17T20:25:53.146Z,100013.94
2023-03-17T20:28:21.424Z,100013.78
2023-03-17T20:30:49.225Z,100007.56
2023-03-17T20:33:16.529Z,100014.06
2023-03-17T20:35:44.610Z,100019.06
2023-03-17T20:38:12.690Z,100009.94
2023-03-17T20:40:39.753Z,100005.56
2023-03-17T20:43:06.583Z,100005.25
2023-03-17T20:45:32.949Z,100012.47
2023-03-17T20:47:59.256Z,100017.22
2023-03-17T20:50:25.633Z,100017.19
2023-03-17T20:52:52.315Z,100015.53
2023-03-17T20:55:19.610Z,100017.00
2023-03-17T20:57:47.375Z,100016.28
2023-03-17T21:00:17.757Z,100015.06
2023-03-17T21:02:45.676Z,100018.59
2023-03-17T21:05:15.286Z,100018.34
2023-03-17T21:07:41.932Z,100013.03
2023-03-17T21:10:09.535Z,100017.38
2023-03-17T21:12:35.936Z,100016.09
2023-03-17T21:15:03.737Z,100018.91
2023-03-17T21:17:30.686Z,100019.66
2023-03-17T21:19:57.096Z,100020.84
2023-03-17T21:22:24.126Z,100024.25
2023-03-17T21:24:50.467Z,100011.25
2023-03-17T21:27:17.794Z,99997.91
2023-03-17T21:29:44.218Z,100015.97
2023-03-17T21:32:10.640Z,100016.69
2023-03-17T21:34:38.021Z,100023.44
2023-03-17T21:37:05.119Z,100022.88
2023-03-17T21:39:32.605Z,100010.88
2023-03-17T21:42:00.795Z,100007.75
2023-03-17T21:44:27.349Z,100009.41
2023-03-17T21:46:56.441Z,100008.16
2023-03-17T21:49:24.533Z,100011.25
2023-03-17T21:51:51.524Z,100014.63
2023-03-17T21:54:19.121Z,100018.69
2023-03-17T21:56:46.167Z,100013.19
2023-03-17T21:59:13.927Z,100027.03
2023-03-17T22:01:41.636Z,100032.81
2023-03-17T22:04:08.162Z,100032.84
2023-03-17T22:06:34.625Z,100025.00
2023-03-17T22:09:01.513Z,100025.84
2023-03-17T22:11:27.885Z,100033.19
2023-03-17T22:13:54.241Z,100035.59
2023-03-17T22:16:21.495Z,100032.22
2023-03-17T22:18:47.886Z,100040.69
2023-03-17T22:21:14.620Z,100047.16
2023-03-17T22:23:42.026Z,100043.78
2023-03-17T22:26:12.218Z,100049.28
2023-03-17T22:28:39.243Z,100045.63
2023-03-17T22:31:14.077Z,100034.91
2023-03-17T22:33:40.533Z,100046.59
2023-03-17T22:36:07.596Z,100048.72
2023-03-17T22:38:34.251Z,100040.97
2023-03-17T22:41:06.375Z,100039.84
2023-03-17T22:43:32.767Z,100043.38
2023-03-17T22:45:59.129Z,100035.47
2023-03-17T22:48:26.181Z,100042.94
2023-03-17T22:50:52.479Z,100046.88
2023-03-17T22:53:19.008Z,100043.22
2023-03-17T22:55:45.438Z,100047.19
2023-03-17T22:58:11.781Z,100047.88
2023-03-17T23:00:38.666Z,100053.94
2023-03-17T23:03:06.046Z,100069.31
2023-03-17T23:05:32.843Z,100072.13
2023-03-17T23:07:59.193Z,100076.06
2023-03-17T23:10:26.619Z,100082.84
2023-03-17T23:12:53.025Z,100086.50
2023-03-17T23:15:20.785Z,100087.06
2023-03-17T23:17:47.428Z,100087.91
2023-03-17T23:20:14.965Z,100081.69
2023-03-17T23:22:41.299Z,100095.53
2023-03-17T23:25:08.512Z,100090.16
2023-03-17T23:27:34.959Z,100096.53
2023-03-17T23:30:01.482Z,100100.16
2023-03-17T23:32:27.907Z,100097.47
2023-03-17T23:34:54.474Z,100100.88
2023-03-17T23:37:21.469Z,100109.03
2023-03-17T23:39:48.475Z,100110.16
2023-03-17T23:42:16.873Z,100119.06
2023-03-17T23:44:43.248Z,100112.28
2023-03-17T23:47:10.446Z,100115.13
2023-03-17T23:49:36.851Z,100122.56
2023-03-17T23:52:04.531Z,100122.03
2023-03-17T23:54:31.650Z,100127.53
2023-03-17T23:56:57.954Z,100123.41
2023-03-17T23:59:24.449Z,100121.88
